Time;durP1;ratioP1;P1;durP2;ratioP2;P2;SDS_P1;SDS_P2;PMS_P1;PMS_P2;Temp;Humidity;BMP_temperature;BMP_pressure;BME280_temperature;BME280_humidity;BME280_pressure;Samples;Min_cycle;Max_cycle;Signal;HPM_P1;HPM_P2
2021/05/27 00:02:02;;;;;;;18.05;13.07;;;18.50;79.20;;;;;;4975253;28;20153;-73
2021/05/27 00:04:28;;;;;;;9.77;7.22;;;18.40;79.20;;;;;;5008041;28;20034;-73
2021/05/27 00:06:54;;;;;;;8.05;6.60;;;18.40;79.40;;;;;;4976630;28;20026;-73
2021/05/27 00:09:19;;;;;;;9.85;6.97;;;18.30;79.30;;;;;;4976430;28;20104;-72
2021/05/27 00:11:45;;;;;;;8.13;6.40;;;18.30;79.40;;;;;;4976310;28;20038;-73
2021/05/27 00:14:11;;;;;;;18.73;6.97;;;18.30;79.30;;;;;;4976471;28;20426;-73
2021/05/27 00:16:36;;;;;;;8.32;6.20;;;18.20;79.20;;;;;;4976575;28;20528;-73
2021/05/27 00:19:02;;;;;;;8.40;6.50;;;18.20;79.20;;;;;;4976402;28;20023;-74
2021/05/27 00:21:28;;;;;;;7.18;6.00;;;18.20;79.30;;;;;;4976267;28;20027;-74
2021/05/27 00:23:54;;;;;;;6.60;5.90;;;18.10;79.50;;;;;;4976208;28;20047;-74
2021/05/27 00:26:19;;;;;;;7.28;5.57;;;18.10;79.60;;;;;;4976176;28;20033;-74
2021/05/27 00:28:45;;;;;;;10.38;6.25;;;18.00;79.60;;;;;;4976043;28;20148;-74
2021/05/27 00:31:12;;;;;;;7.40;5.93;;;18.00;79.80;;;;;;4976067;28;20031;-73
2021/05/27 00:33:37;;;;;;;7.22;5.90;;;18.00;80.00;;;;;;4975895;28;20114;-74
2021/05/27 00:36:03;;;;;;;8.18;6.03;;;17.90;80.10;;;;;;4976047;28;20147;-74
2021/05/27 00:38:29;;;;;;;10.10;6.13;;;17.90;80.30;;;;;;4975840;28;20027;-74
2021/05/27 00:40:55;;;;;;;8.68;6.60;;;17.80;80.40;;;;;;4975780;28;20030;-73
2021/05/27 00:43:21;;;;;;;8.20;6.50;;;17.80;80.70;;;;;;4975829;28;20027;-73
2021/05/27 00:45:47;;;;;;;8.43;6.40;;;17.80;80.80;;;;;;4975767;28;20034;-73
2021/05/27 00:48:57;;;;;;;10.07;5.95;;;17.80;80.80;;;;;;4975659;28;20105;-73
2021/05/27 00:51:00;;;;;;;7.63;5.95;;;17.80;80.90;;;;;;4975550;28;20166;-74
2021/05/27 00:53:27;;;;;;;6.80;6.05;;;17.70;80.90;;;;;;4975647;28;20073;-73
2021/05/27 00:55:54;;;;;;;9.52;5.90;;;17.80;81.10;;;;;;4975815;28;20457;-81
2021/05/27 00:58:22;;;;;;;8.43;6.03;;;17.70;81.10;;;;;;4975875;28;20029;-80
2021/05/27 01:00:48;;;;;;;6.68;5.60;;;17.70;81.20;;;;;;4975365;28;20027;-80
2021/05/27 01:03:13;;;;;;;9.82;6.18;;;17.70;81.20;;;;;;4976859;28;20026;-80
2021/05/27 01:05:40;;;;;;;7.88;5.88;;;17.70;81.20;;;;;;5027185;28;20015;-81
2021/05/27 01:08:06;;;;;;;8.05;5.82;;;17.70;81.20;;;;;;4983217;28;20117;-81
2021/05/27 01:10:32;;;;;;;6.30;5.40;;;17.70;81.30;;;;;;4977221;28;20441;-81
2021/05/27 01:12:58;;;;;;;9.77;6.25;;;17.70;81.30;;;;;;4975789;28;20058;-81
2021/05/27 01:15:38;;;;;;;12.00;5.45;;;17.70;81.40;;;;;;4975929;28;20046;-80
2021/05/27 01:18:14;;;;;;;10.18;5.80;;;17.70;81.50;;;;;;4975747;28;20019;-80
2021/05/27 01:20:46;;;;;;;8.23;6.38;;;17.80;81.70;;;;;;4975647;28;20015;-80
2021/05/27 01:23:13;;;;;;;12.65;5.78;;;17.70;81.70;;;;;;4975683;28;20089;-80
2021/05/27 01:25:44;;;;;;;7.50;6.10;;;17.70;81.70;;;;;;4975447;28;20466;-80
2021/05/27 01:28:10;;;;;;;7.88;5.80;;;17.70;81.90;;;;;;4975478;28;20557;-81
2021/05/27 01:30:36;;;;;;;11.35;6.32;;;17.70;82.00;;;;;;4975878;28;20122;-81
2021/05/27 01:33:02;;;;;;;10.40;6.60;;;17.70;82.10;;;;;;4976180;28;20062;-81
2021/05/27 01:35:27;;;;;;;9.65;6.32;;;17.70;82.20;;;;;;4976305;28;20070;-81
2021/05/27 01:37:55;;;;;;;11.25;6.40;;;17.70;82.30;;;;;;5007462;28;20029;-80
2021/05/27 01:40:23;;;;;;;9.00;6.50;;;17.70;82.40;;;;;;4976150;28;20019;-80
2021/05/27 01:42:49;;;;;;;8.93;7.20;;;17.70;82.50;;;;;;4975718;28;20430;-80
2021/05/27 01:45:18;;;;;;;9.63;6.97;;;17.70;83.30;;;;;;4989212;28;20111;-80
2021/05/27 01:47:43;;;;;;;9.35;7.40;;;17.70;82.80;;;;;;4983141;28;20118;-80
2021/05/27 01:50:10;;;;;;;10.02;7.25;;;17.70;82.90;;;;;;4978774;28;20058;-80
2021/05/27 01:52:36;;;;;;;12.48;7.85;;;17.70;83.10;;;;;;4978882;28;20027;-80
2021/05/27 01:55:04;;;;;;;11.00;8.90;;;17.60;83.20;;;;;;4995005;28;20058;-80
2021/05/27 01:57:29;;;;;;;13.48;8.00;;;17.70;83.50;;;;;;4997974;28;20011;-80
2021/05/27 01:59:55;;;;;;;15.05;8.55;;;17.60;83.60;;;;;;4996475;28;20124;-80
2021/05/27 02:02:21;;;;;;;12.35;8.70;;;17.60;83.70;;;;;;5013418;28;20031;-80
2021/05/27 02:04:46;;;;;;;10.18;8.27;;;17.60;83.80;;;;;;4976809;28;20054;-80
2021/05/27 02:07:14;;;;;;;14.82;8.60;;;17.60;83.80;;;;;;4976041;28;20027;-80
2021/05/27 02:09:40;;;;;;;12.50;8.93;;;17.60;83.90;;;;;;5007158;28;20386;-81
2021/05/27 02:12:07;;;;;;;18.75;8.35;;;17.60;84.00;;;;;;4975148;28;20030;-81
2021/05/27 02:14:33;;;;;;;19.85;8.77;;;17.60;84.10;;;;;;4976039;28;20101;-80
2021/05/27 02:16:59;;;;;;;14.52;9.50;;;17.70;84.20;;;;;;4975792;28;20157;-80
2021/05/27 02:19:25;;;;;;;11.48;8.60;;;17.70;84.40;;;;;;4975306;28;20105;-79
2021/05/27 02:21:51;;;;;;;10.95;7.78;;;17.80;84.40;;;;;;4982363;28;20031;-80
2021/05/27 02:24:17;;;;;;;17.60;8.52;;;17.90;84.40;;;;;;4987334;28;20033;-80
2021/05/27 02:26:43;;;;;;;9.95;7.53;;;18.00;84.40;;;;;;5007188;28;20034;-80
2021/05/27 02:29:09;;;;;;;11.65;8.48;;;18.30;84.30;;;;;;5007116;28;20050;-80
2021/05/27 02:31:35;;;;;;;8.27;7.47;;;18.50;83.30;;;;;;4975263;28;20033;-80
2021/05/27 02:34:01;;;;;;;12.20;7.50;;;18.70;82.40;;;;;;4973878;28;20031;-80
2021/05/27 02:36:27;;;;;;;10.40;7.82;;;18.90;81.70;;;;;;4974792;28;20015;-81
2021/05/27 02:38:53;;;;;;;11.02;7.82;;;19.00;81.10;;;;;;4974823;28;20027;-81
2021/05/27 02:41:20;;;;;;;17.25;7.43;;;19.20;80.90;;;;;;4974818;28;20106;-80
2021/05/27 02:43:46;;;;;;;10.13;7.30;;;19.30;80.30;;;;;;4974795;28;20031;-80
2021/05/27 02:46:12;;;;;;;9.82;6.82;;;19.40;79.70;;;;;;4974950;28;20029;-80
2021/05/27 02:48:37;;;;;;;8.43;6.90;;;19.60;79.80;;;;;;4974384;28;20105;-80
2021/05/27 02:51:04;;;;;;;12.73;6.78;;;20.00;79.50;;;;;;4974148;28;20176;-81
2021/05/27 02:53:30;;;;;;;10.85;6.25;;;20.50;78.70;;;;;;4973958;28;20031;-81
2021/05/27 02:55:56;;;;;;;13.63;6.65;;;20.90;77.50;;;;;;4974294;28;20524;-81
2021/05/27 02:58:21;;;;;;;10.32;6.47;;;21.30;76.10;;;;;;4987334;28;20023;-80
2021/05/27 03:00:48;;;;;;;7.55;6.07;;;21.80;74.90;;;;;;4978191;28;20030;-74
2021/05/27 03:03:20;;;;;;;14.02;5.88;;;22.20;73.30;;;;;;4973117;28;20030;-72
2021/05/27 03:05:46;;;;;;;14.70;6.25;;;22.30;71.60;;;;;;4973111;28;20033;-73
2021/05/27 03:08:11;;;;;;;8.98;5.30;;;22.20;70.70;;;;;;4973193;28;20023;-74
2021/05/27 03:10:37;;;;;;;15.43;7.03;;;22.10;70.50;;;;;;4973085;28;20030;-75
2021/05/27 03:13:03;;;;;;;10.15;5.80;;;22.30;71.40;;;;;;4971565;28;20085;-75
2021/05/27 03:15:29;;;;;;;12.32;6.63;;;22.80;70.80;;;;;;4972953;28;20098;-73
2021/05/27 03:17:58;;;;;;;14.85;6.78;;;23.20;69.10;;;;;;4973216;28;20027;-73
2021/05/27 03:20:24;;;;;;;19.42;7.82;;;23.30;67.90;;;;;;4973045;28;20466;-73
2021/05/27 03:22:50;;;;;;;14.32;7.15;;;23.40;67.20;;;;;;4972673;28;20027;-73
2021/05/27 03:25:15;;;;;;;10.27;6.78;;;23.30;66.60;;;;;;4973333;28;20031;-72
2021/05/27 03:27:41;;;;;;;15.45;7.00;;;23.10;66.50;;;;;;4973385;28;20031;-73
2021/05/27 03:30:07;;;;;;;10.77;6.85;;;22.80;66.60;;;;;;5004241;28;20042;-73
2021/05/27 03:32:33;;;;;;;12.05;6.82;;;22.60;67.00;;;;;;4972934;28;20035;-73
2021/05/27 03:34:59;;;;;;;11.00;7.30;;;22.40;67.50;;;;;;4972724;28;20382;-73
2021/05/27 03:37:24;;;;;;;13.07;7.18;;;22.30;68.00;;;;;;4972969;28;20524;-72
2021/05/27 03:42:34;;;;;;;23.67;6.95;;;22.70;69.50;;;;;;4972843;28;20433;-73
2021/05/27 03:45:03;;;;;;;18.00;7.90;;;23.10;68.70;;;;;;4973757;28;20031;-81
2021/05/27 03:47:28;;;;;;;19.83;7.13;;;23.50;67.20;;;;;;5004836;28;20062;-82
2021/05/27 03:49:54;;;;;;;17.88;6.22;;;23.60;66.20;;;;;;4973456;28;20053;-82
2021/05/27 03:52:20;;;;;;;22.60;8.30;;;23.60;66.30;;;;;;5004005;28;20130;-74
2021/05/27 03:54:45;;;;;;;29.75;10.13;;;24.00;66.60;;;;;;4972576;28;20023;-73
2021/05/27 03:57:11;;;;;;;27.27;9.07;;;24.50;65.70;;;;;;4972765;28;20457;-73
2021/05/27 04:02:21;;;;;;;28.25;9.38;;;24.60;63.90;;;;;;4972732;28;20819;-74
2021/05/27 04:07:31;;;;;;;17.30;9.10;;;25.50;62.50;;;;;;4972649;28;20038;-74
2021/05/27 04:09:57;;;;;;;26.45;11.07;;;25.50;61.80;;;;;;4972466;28;20038;-74
2021/05/27 04:15:24;;;;;;;23.02;9.32;;;25.20;61.60;;;;;;4972528;28;20038;-75
2021/05/27 04:18:00;;;;;;;20.33;8.45;;;25.20;61.80;;;;;;5003563;28;20023;-75
2021/05/27 04:20:30;;;;;;;21.05;9.52;;;25.00;61.80;;;;;;5003384;28;20019;-74
2021/05/27 04:22:57;;;;;;;17.20;8.00;;;25.00;62.10;;;;;;4972261;28;20019;-74
2021/05/27 04:25:25;;;;;;;17.00;11.15;;;24.90;62.60;;;;;;4971981;28;20030;-75
2021/05/27 04:27:51;;;;;;;15.73;8.43;;;25.00;62.90;;;;;;4970834;28;20027;-82
2021/05/27 04:30:19;;;;;;;14.45;7.68;;;25.60;63.40;;;;;;4972033;28;20051;-83
2021/05/27 04:35:33;;;;;;;11.07;6.20;;;27.10;60.10;;;;;;4975371;28;20023;-81
2021/05/27 04:38:12;;;;;;;12.77;6.97;;;27.50;58.60;;;;;;4977643;28;20023;-81
2021/05/27 04:40:43;;;;;;;10.40;5.50;;;28.10;57.60;;;;;;4977297;28;20037;-80
2021/05/27 04:43:09;;;;;;;12.55;5.53;;;29.20;56.80;;;;;;4977300;28;20035;-80
2021/05/27 04:45:35;;;;;;;12.80;7.45;;;30.50;54.80;;;;;;4977095;28;20039;-80
2021/05/27 04:48:04;;;;;;;10.32;6.22;;;31.80;52.60;;;;;;4976785;28;20027;-80
2021/05/27 04:50:31;;;;;;;14.02;7.68;;;32.90;50.30;;;;;;4977397;28;20023;-82
2021/05/27 04:52:57;;;;;;;17.20;12.38;;;34.00;48.20;;;;;;5008560;28;20524;-82
2021/05/27 04:55:26;;;;;;;28.58;16.77;;;34.80;46.90;;;;;;4977975;28;20027;-80
2021/05/27 04:57:51;;;;;;;22.23;15.70;;;35.50;45.50;;;;;;4979550;28;20023;-83
2021/05/27 05:00:23;;;;;;;22.17;14.77;;;35.70;44.30;;;;;;4975942;28;20545;-75
2021/05/27 05:02:49;;;;;;;22.30;15.65;;;36.00;43.70;;;;;;5006651;28;20090;-73
2021/05/27 05:05:15;;;;;;;24.83;16.92;;;36.60;43.10;;;;;;4974788;28;20027;-74
2021/05/27 05:07:42;;;;;;;28.60;20.98;;;37.20;42.20;;;;;;4973593;28;20071;-74
2021/05/27 05:10:10;;;;;;;34.30;21.90;;;37.90;41.60;;;;;;4974189;28;20031;-74
2021/05/27 05:12:46;;;;;;;28.48;18.02;;;38.40;40.80;;;;;;4974382;28;20039;-74
2021/05/27 05:15:37;;;;;;;35.17;13.02;;;38.80;39.80;;;;;;4974410;28;20027;-76
2021/05/27 05:18:07;;;;;;;25.42;10.95;;;39.20;39.00;;;;;;4969789;28;20103;-74
2021/05/27 05:20:38;;;;;;;34.90;12.77;;;39.60;38.50;;;;;;4974239;28;20372;-74
2021/05/27 05:23:05;;;;;;;36.08;12.82;;;40.10;37.90;;;;;;4974011;28;20625;-74
2021/05/27 05:25:33;;;;;;;40.03;11.63;;;40.50;37.70;;;;;;4974806;28;20027;-77
2021/05/27 05:28:00;;;;;;;36.25;12.45;;;40.80;36.90;;;;;;4974197;28;20027;-74
2021/05/27 05:30:27;;;;;;;28.88;10.88;;;41.00;36.60;;;;;;4974342;28;20043;-73
2021/05/27 05:32:54;;;;;;;44.28;12.10;;;41.40;35.90;;;;;;4974046;28;20031;-73
2021/05/27 05:35:20;;;;;;;31.58;10.13;;;41.70;35.60;;;;;;5004890;28;20057;-73
2021/05/27 05:37:47;;;;;;;23.40;9.43;;;42.00;35.30;;;;;;4972435;28;20065;-72
2021/05/27 05:40:15;;;;;;;20.27;8.10;;;42.30;34.80;;;;;;4972089;28;20054;-72
2021/05/27 05:42:42;;;;;;;14.88;7.28;;;42.60;34.60;;;;;;4972132;28;20030;-73
2021/05/27 05:45:10;;;;;;;10.43;6.90;;;42.80;34.10;;;;;;4973289;28;20482;-72
2021/05/27 05:47:37;;;;;;;9.65;5.88;;;42.90;34.00;;;;;;5004239;28;20375;-72
2021/05/27 05:50:04;;;;;;;7.38;6.20;;;43.10;33.70;;;;;;4973960;28;20113;-73
2021/05/27 05:52:30;;;;;;;8.88;6.00;;;43.30;33.40;;;;;;5005263;28;20031;-74
2021/05/27 05:54:57;;;;;;;11.20;6.78;;;43.60;33.60;;;;;;4973872;28;20045;-75
2021/05/27 05:57:24;;;;;;;10.82;5.93;;;43.70;33.10;;;;;;5005792;28;20023;-73
2021/05/27 05:59:49;;;;;;;12.57;6.95;;;43.70;33.10;;;;;;4973939;28;20099;-73
2021/05/27 06:02:15;;;;;;;7.53;6.90;;;43.80;33.10;;;;;;4973805;28;20154;-74
2021/05/27 06:04:41;;;;;;;8.38;6.63;;;43.90;33.00;;;;;;4973607;28;20027;-74
2021/05/27 06:07:07;;;;;;;16.75;7.40;;;44.10;33.10;;;;;;4973904;28;20027;-74
2021/05/27 06:09:32;;;;;;;10.55;6.57;;;44.30;33.70;;;;;;4974787;28;20085;-81
2021/05/27 06:11:59;;;;;;;8.63;6.13;;;44.40;33.00;;;;;;4976674;28;20031;-81
2021/05/27 06:14:25;;;;;;;13.63;6.70;;;44.40;32.80;;;;;;4976639;28;20049;-82
2021/05/27 06:16:51;;;;;;;9.50;6.22;;;44.40;32.80;;;;;;4975387;28;20027;-82
2021/05/27 06:19:17;;;;;;;6.97;6.25;;;44.40;32.70;;;;;;5005927;28;20073;-74
2021/05/27 06:21:42;;;;;;;10.95;6.68;;;44.50;32.70;;;;;;4973224;28;20097;-73
2021/05/27 06:24:09;;;;;;;12.52;6.45;;;44.50;32.70;;;;;;4975230;28;20093;-81
2021/05/27 06:26:38;;;;;;;6.13;5.40;;;44.60;32.80;;;;;;4974750;28;20038;-81
2021/05/27 06:29:03;;;;;;;7.72;5.70;;;44.70;32.40;;;;;;4973920;28;20046;-82
2021/05/27 06:31:30;;;;;;;9.52;6.05;;;44.70;32.70;;;;;;4973811;28;20023;-82
2021/05/27 06:33:56;;;;;;;5.95;5.38;;;44.70;32.40;;;;;;5005050;28;20381;-81
2021/05/27 06:36:22;;;;;;;8.50;5.47;;;44.80;32.40;;;;;;5005298;28;20038;-81
2021/05/27 06:38:47;;;;;;;6.40;5.38;;;44.80;32.40;;;;;;5004853;28;20031;-73
2021/05/27 06:41:18;;;;;;;7.90;6.00;;;44.80;32.40;;;;;;4973534;28;20109;-73
2021/05/27 06:43:44;;;;;;;13.50;5.88;;;44.80;32.50;;;;;;5004181;28;20351;-72
2021/05/27 06:46:10;;;;;;;11.63;5.75;;;44.50;32.40;;;;;;4973352;28;20042;-74
2021/05/27 06:48:36;;;;;;;10.13;6.03;;;44.40;32.60;;;;;;4973448;28;20023;-73
2021/05/27 06:51:01;;;;;;;6.05;5.55;;;44.10;32.30;;;;;;4972895;28;20481;-74
2021/05/27 06:53:27;;;;;;;6.38;5.20;;;43.80;32.80;;;;;;4972937;28;20026;-73
2021/05/27 06:55:53;;;;;;;9.65;6.15;;;43.80;32.90;;;;;;4972668;28;20078;-73
2021/05/27 06:58:19;;;;;;;8.35;5.85;;;43.80;33.10;;;;;;4972801;28;20042;-74
2021/05/27 07:00:45;;;;;;;7.97;5.50;;;43.80;33.20;;;;;;4972865;28;20093;-74
2021/05/27 07:03:17;;;;;;;7.80;5.22;;;43.70;33.30;;;;;;4972716;28;20026;-74
2021/05/27 07:05:43;;;;;;;6.18;5.32;;;43.60;33.40;;;;;;4972742;28;20022;-75
2021/05/27 07:08:08;;;;;;;8.70;5.20;;;43.50;33.80;;;;;;4973019;28;20097;-77
2021/05/27 07:10:35;;;;;;;5.82;4.93;;;43.40;33.70;;;;;;4972964;28;20022;-75
2021/05/27 07:13:04;;;;;;;5.43;4.53;;;43.40;33.80;;;;;;4975926;28;20018;-85
2021/05/27 07:15:29;;;;;;;4.70;4.15;;;43.30;33.80;;;;;;4974820;28;20465;-86
2021/05/27 07:17:56;;;;;;;7.13;4.28;;;43.20;33.50;;;;;;4973728;28;20041;-76
2021/05/27 07:20:23;;;;;;;8.63;4.00;;;43.20;33.70;;;;;;4972921;28;20027;-77
2021/05/27 07:22:51;;;;;;;6.35;4.75;;;43.10;33.60;;;;;;4970669;28;20050;-76
2021/05/27 07:25:19;;;;;;;7.07;4.72;;;43.00;33.70;;;;;;4972424;28;20015;-76
2021/05/27 07:27:48;;;;;;;6.53;3.92;;;42.80;33.90;;;;;;4972394;28;20070;-76
2021/05/27 07:30:14;;;;;;;5.45;3.88;;;42.70;34.00;;;;;;4972236;28;20103;-76
2021/05/27 07:32:40;;;;;;;9.43;4.35;;;42.60;34.10;;;;;;4972725;28;20049;-77
2021/05/27 07:35:06;;;;;;;10.90;3.83;;;42.50;34.20;;;;;;4972681;28;20027;-79
2021/05/27 07:37:32;;;;;;;10.40;4.35;;;42.30;34.10;;;;;;4973557;28;20022;-82
2021/05/27 07:39:59;;;;;;;7.80;4.40;;;42.10;34.50;;;;;;4971887;28;20027;-84
2021/05/27 07:42:25;;;;;;;11.50;4.38;;;42.00;34.70;;;;;;4972960;28;20153;-83
2021/05/27 07:44:50;;;;;;;7.78;4.10;;;41.70;35.00;;;;;;4972668;28;20027;-83
2021/05/27 07:47:16;;;;;;;5.78;3.50;;;41.50;34.80;;;;;;4973100;28;20030;-82
2021/05/27 07:49:42;;;;;;;6.68;3.95;;;41.30;34.90;;;;;;4972863;28;20497;-84
2021/05/27 07:52:08;;;;;;;4.35;3.20;;;41.20;34.80;;;;;;4972694;28;20031;-82
2021/05/27 07:54:33;;;;;;;5.70;3.20;;;40.90;35.20;;;;;;4972581;28;20022;-84
2021/05/27 07:56:59;;;;;;;5.63;3.15;;;40.70;35.40;;;;;;4972523;28;20478;-81
2021/05/27 07:59:25;;;;;;;14.70;3.53;;;40.30;35.50;;;;;;4972735;28;20034;-84
2021/05/27 08:01:51;;;;;;;7.15;3.45;;;40.00;35.80;;;;;;4972506;28;20027;-84
2021/05/27 08:04:17;;;;;;;5.32;3.50;;;39.60;36.10;;;;;;5003991;28;20497;-84
2021/05/27 08:06:42;;;;;;;7.50;3.50;;;39.30;36.50;;;;;;4972778;28;20027;-84
2021/05/27 08:09:10;;;;;;;15.00;5.50;;;38.90;36.90;;;;;;4974566;28;20042;-84
2021/05/27 08:11:40;;;;;;;17.73;5.15;;;38.60;37.50;;;;;;4976305;28;20041;-83
2021/05/27 08:14:06;;;;;;;6.57;3.78;;;38.30;37.80;;;;;;4977064;28;20022;-83
2021/05/27 08:16:32;;;;;;;8.18;3.78;;;38.10;38.00;;;;;;4976532;28;20018;-84
2021/05/27 08:18:58;;;;;;;9.10;3.85;;;38.00;38.50;;;;;;4976074;28;20401;-77
2021/05/27 08:21:26;;;;;;;6.60;3.70;;;37.90;38.50;;;;;;4975759;28;20381;-78
2021/05/27 08:23:52;;;;;;;9.52;6.68;;;37.60;38.60;;;;;;4975641;28;20026;-77
2021/05/27 08:26:18;;;;;;;5.70;3.88;;;37.50;38.70;;;;;;4975841;28;20031;-77
2021/05/27 08:28:46;;;;;;;7.20;3.22;;;37.40;38.70;;;;;;4975405;28;20043;-76
2021/05/27 08:31:11;;;;;;;3.63;3.33;;;37.30;39.30;;;;;;4975807;28;20105;-77
2021/05/27 08:33:37;;;;;;;4.25;3.42;;;37.10;39.00;;;;;;4975908;28;20181;-76
2021/05/27 08:36:03;;;;;;;4.45;3.90;;;36.80;38.70;;;;;;4975066;28;20111;-78
2021/05/27 08:38:29;;;;;;;7.68;3.40;;;36.60;39.30;;;;;;4975444;28;20027;-78
2021/05/27 08:40:55;;;;;;;11.13;3.70;;;36.50;38.80;;;;;;4975646;28;20027;-78
2021/05/27 08:43:21;;;;;;;8.13;4.10;;;36.20;38.80;;;;;;4975419;28;20030;-77
2021/05/27 08:45:48;;;;;;;12.73;6.53;;;36.20;38.90;;;;;;4975290;28;20078;-78
2021/05/27 08:48:18;;;;;;;5.90;2.92;;;36.20;39.00;;;;;;4975207;28;20034;-77
2021/05/27 08:50:46;;;;;;;7.00;3.47;;;36.20;38.90;;;;;;4974907;28;20029;-77
2021/05/27 08:53:17;;;;;;;7.65;3.50;;;36.10;39.10;;;;;;4970937;28;20128;-73
2021/05/27 08:55:43;;;;;;;;;;;36.10;39.60;;;;;;4975698;28;20027;-78
2021/05/27 08:58:09;;;;;;;6.30;3.78;;;36.10;39.30;;;;;;4973561;28;19922;-78
2021/05/27 09:00:36;;;;;;;5.20;3.50;;;36.00;39.60;;;;;;4974874;28;20433;-79
2021/05/27 09:03:04;;;;;;;7.65;3.33;;;36.10;39.80;;;;;;4975432;28;20023;-77
2021/05/27 09:05:36;;;;;;;7.15;4.25;;;35.90;39.60;;;;;;4976582;28;20083;-86
2021/05/27 09:08:03;;;;;;;8.57;3.63;;;35.70;39.80;;;;;;4979100;28;20047;-86
2021/05/27 09:10:45;;;;;;;8.57;3.90;;;35.40;39.60;;;;;;4975900;28;20540;-87
2021/05/27 09:13:18;;;;;;;14.20;8.00;;;35.20;40.00;;;;;;4976083;28;20062;-83
2021/05/27 09:15:45;;;;;;;7.03;4.75;;;35.20;40.80;;;;;;4975899;28;20091;-85
2021/05/27 09:18:11;;;;;;;14.70;4.35;;;35.30;40.60;;;;;;4976990;28;20033;-87
2021/05/27 09:20:38;;;;;;;8.07;4.18;;;35.20;40.80;;;;;;4976174;28;20027;-87
2021/05/27 09:23:07;;;;;;;6.25;4.10;;;35.10;40.60;;;;;;4974748;28;20118;-86
2021/05/27 09:25:35;;;;;;;7.03;5.45;;;34.80;40.80;;;;;;4979485;28;20026;-84
2021/05/27 09:28:01;;;;;;;7.25;3.97;;;34.50;41.50;;;;;;4983739;28;20023;-85
2021/05/27 09:30:27;;;;;;;10.68;5.43;;;34.20;41.70;;;;;;4975122;28;20047;-87
2021/05/27 09:32:53;;;;;;;6.57;4.10;;;34.20;42.00;;;;;;4976699;28;20042;-87
2021/05/27 09:35:20;;;;;;;9.05;4.55;;;34.10;41.80;;;;;;4975657;28;20030;-86
2021/05/27 09:37:55;;;;;;;10.93;4.60;;;34.00;41.90;;;;;;4975917;28;20026;-86
2021/05/27 09:40:40;;;;;;;4.97;4.30;;;33.90;42.20;;;;;;4976200;28;20031;-87
2021/05/27 09:43:08;;;;;;;7.13;4.43;;;33.80;42.00;;;;;;4975810;28;20486;-86
2021/05/27 09:45:36;;;;;;;5.55;4.35;;;33.60;41.90;;;;;;4975875;28;20038;-87
2021/05/27 09:48:24;;;;;;;7.30;3.70;;;33.50;42.20;;;;;;4976243;28;20500;-86
2021/05/27 09:50:50;;;;;;;8.25;4.10;;;33.40;42.50;;;;;;4981475;28;20070;-87
2021/05/27 09:53:21;;;;;;;8.70;4.03;;;33.30;42.70;;;;;;4982023;28;20035;-87
2021/05/27 09:55:47;;;;;;;;;;;33.10;42.40;;;;;;4976451;28;20030;-86
2021/05/27 09:58:16;;;;;;;7.43;5.13;;;32.90;42.30;;;;;;4978728;28;19913;-86
2021/05/27 10:00:43;;;;;;;11.57;5.32;;;32.60;43.80;;;;;;4985727;28;20047;-86
2021/05/27 10:03:27;;;;;;;9.93;5.40;;;32.20;45.00;;;;;;4983339;28;20458;-86
2021/05/27 10:05:54;;;;;;;8.63;5.40;;;31.60;46.00;;;;;;4982344;28;20023;-81
2021/05/27 10:08:20;;;;;;;7.30;4.93;;;31.10;46.90;;;;;;4982527;28;20042;-81
2021/05/27 10:10:47;;;;;;;7.13;5.15;;;30.70;47.80;;;;;;4986476;28;20047;-83
2021/05/27 10:13:15;;;;;;;8.55;5.35;;;30.60;48.50;;;;;;4975392;28;20022;-81
2021/05/27 10:15:43;;;;;;;10.10;5.25;;;30.50;48.40;;;;;;4977183;28;20417;-86
2021/05/27 10:18:17;;;;;;;12.93;7.97;;;30.30;48.90;;;;;;4976249;28;20078;-83
2021/05/27 10:20:44;;;;;;;13.32;6.97;;;30.30;49.60;;;;;;4974763;28;20027;-80
2021/05/27 10:23:10;;;;;;;10.60;6.03;;;30.50;49.10;;;;;;4974448;28;20023;-81
2021/05/27 10:25:36;;;;;;;9.02;5.57;;;30.40;48.40;;;;;;4972424;28;20789;-81
2021/05/27 10:28:10;;;;;;;5.60;5.10;;;30.30;48.90;;;;;;4973580;28;20113;-80
2021/05/27 10:30:40;;;;;;;8.70;5.65;;;30.10;49.30;;;;;;4972365;28;20462;-81
2021/05/27 10:33:14;;;;;;;9.10;5.22;;;29.70;49.50;;;;;;4973578;28;20070;-79
2021/05/27 10:35:54;;;;;;;9.85;5.60;;;29.50;50.10;;;;;;4973650;28;20030;-83
2021/05/27 10:38:44;;;;;;;10.70;5.80;;;29.30;50.70;;;;;;4973324;28;20026;-82
2021/05/27 10:41:09;;;;;;;6.97;4.80;;;29.30;51.20;;;;;;4973810;28;20510;-80
2021/05/27 10:43:36;;;;;;;9.98;5.82;;;29.30;51.80;;;;;;4973905;28;20099;-79
2021/05/27 10:46:04;;;;;;;11.35;5.53;;;29.20;51.80;;;;;;4973284;28;20465;-83
2021/05/27 10:48:37;;;;;;;9.48;6.40;;;29.10;50.90;;;;;;4971543;28;20031;-80
2021/05/27 10:53:37;;;;;;;9.43;5.50;;;28.60;51.40;;;;;;4972876;28;20319;-81
2021/05/27 10:56:07;;;;;;;8.57;6.78;;;28.40;52.10;;;;;;4972673;28;20027;-79
2021/05/27 10:58:48;;;;;;;12.40;6.50;;;28.40;52.40;;;;;;4972693;28;20030;-80
2021/05/27 11:01:15;;;;;;;15.48;7.45;;;28.40;52.60;;;;;;4972708;28;20022;-80
2021/05/27 11:03:50;;;;;;;16.27;7.03;;;28.40;52.50;;;;;;4973186;28;20058;-82
2021/05/27 11:06:32;;;;;;;18.98;10.15;;;28.40;52.80;;;;;;4972338;28;20102;-74
2021/05/27 11:09:23;;;;;;;13.70;7.57;;;28.60;52.10;;;;;;4972056;28;20454;-77
2021/05/27 11:12:02;;;;;;;12.00;7.78;;;28.60;52.00;;;;;;4963445;28;20038;-79
2021/05/27 11:14:35;;;;;;;11.10;7.70;;;28.40;52.10;;;;;;4972076;28;20098;-76
2021/05/27 11:27:42;;;;;;;15.13;5.07;;;27.50;53.90;;;;;;4972750;28;20066;-78
2021/05/27 11:30:40;;;;;;;21.77;6.43;;;27.30;54.60;;;;;;4971598;28;20043;-80
2021/05/27 11:33:14;;;;;;;13.05;9.32;;;26.60;66.40;;;;;;4973484;28;20054;-82
2021/05/27 11:35:41;;;;;;;13.75;9.02;;;25.50;75.70;;;;;;4972304;28;20029;-79
2021/05/27 11:38:15;;;;;;;14.45;9.88;;;24.90;81.80;;;;;;4973052;28;20047;-80
2021/05/27 11:40:44;;;;;;;17.77;10.90;;;24.50;86.10;;;;;;4973493;28;20023;-79
2021/05/27 11:43:10;;;;;;;20.77;12.30;;;24.20;89.30;;;;;;4971322;28;20054;-78
2021/05/27 11:45:59;;;;;;;20.15;14.05;;;24.10;91.40;;;;;;4976539;28;20031;-79
2021/05/27 11:48:40;;;;;;;16.98;13.85;;;24.00;92.90;;;;;;4976817;28;20057;-79
2021/05/27 11:51:12;;;;;;;19.48;14.75;;;23.90;94.20;;;;;;4977218;28;20030;-80
2021/05/27 11:53:47;;;;;;;15.45;11.85;;;24.00;95.50;;;;;;4982931;28;20090;-81
2021/05/27 11:56:37;;;;;;;17.25;12.70;;;24.00;95.80;;;;;;4983735;28;20026;-80
2021/05/27 11:59:05;;;;;;;16.20;10.80;;;24.00;96.50;;;;;;4985616;28;20026;-80
2021/05/27 12:01:31;;;;;;;13.88;11.00;;;24.00;96.60;;;;;;4978076;28;20081;-80
2021/05/27 12:04:10;;;;;;;18.63;13.05;;;24.00;96.50;;;;;;4978651;28;20031;-80
2021/05/27 12:06:54;;;;;;;25.10;15.82;;;24.00;96.60;;;;;;4977808;28;20418;-79
2021/05/27 12:09:21;;;;;;;16.15;13.25;;;23.90;97.00;;;;;;4977021;28;20078;-77
2021/05/27 12:11:47;;;;;;;21.40;15.65;;;23.70;95.60;;;;;;4976102;28;20513;-77
2021/05/27 12:14:14;;;;;;;15.98;13.80;;;23.50;95.20;;;;;;4975817;28;20544;-78
2021/05/27 12:16:39;;;;;;;95.22;44.45;;;23.30;94.70;;;;;;4974879;28;20517;-78
2021/05/27 12:19:08;;;;;;;27.08;17.67;;;23.00;94.30;;;;;;4976026;28;20058;-77
2021/05/27 12:21:35;;;;;;;14.93;11.93;;;22.80;95.10;;;;;;4975732;28;20051;-78
2021/05/27 12:24:01;;;;;;;17.30;12.60;;;22.60;95.50;;;;;;4975800;28;20177;-78
2021/05/27 12:26:28;;;;;;;13.68;11.68;;;22.50;96.40;;;;;;4975873;28;20027;-78
2021/05/27 12:28:54;;;;;;;16.80;13.10;;;22.40;97.10;;;;;;4974429;28;20486;-76
2021/05/27 12:31:21;;;;;;;15.68;13.52;;;22.50;98.20;;;;;;4975737;28;20490;-77
2021/05/27 12:33:47;;;;;;;17.65;12.02;;;22.70;99.30;;;;;;4975615;28;20485;-79
2021/05/27 12:36:13;;;;;;;14.90;12.98;;;22.80;99.10;;;;;;4975705;28;20145;-78
2021/05/27 12:38:47;;;;;;;16.20;12.63;;;22.90;99.00;;;;;;4975343;28;20141;-77
2021/05/27 12:41:15;;;;;;;17.10;12.38;;;23.00;98.40;;;;;;4974307;28;20065;-78
2021/05/27 12:43:51;;;;;;;15.35;12.73;;;23.00;99.10;;;;;;4975649;28;20023;-77
2021/05/27 12:46:29;;;;;;;17.98;13.23;;;23.10;99.70;;;;;;4975570;28;20054;-78
2021/05/27 12:48:57;;;;;;;15.82;12.10;;;23.30;99.90;;;;;;4975474;28;20034;-78
2021/05/27 12:51:25;;;;;;;11.30;10.10;;;23.40;99.90;;;;;;4975685;28;20027;-78
2021/05/27 12:53:53;;;;;;;17.63;12.23;;;23.50;99.80;;;;;;4973767;28;20073;-78
2021/05/27 12:56:21;;;;;;;14.40;11.77;;;23.50;99.60;;;;;;4974749;28;20030;-77
2021/05/27 12:59:07;;;;;;;13.00;11.70;;;23.60;99.60;;;;;;4973955;28;20385;-77
2021/05/27 13:01:50;;;;;;;16.55;14.57;;;23.60;99.80;;;;;;4975262;28;20057;-78
2021/05/27 13:04:19;;;;;;;22.40;19.88;;;23.70;99.60;;;;;;4975976;28;20114;-75
2021/05/27 13:06:45;;;;;;;27.60;15.43;;;23.70;99.50;;;;;;4975267;28;20096;-79
2021/05/27 13:09:14;;;;;;;19.05;13.95;;;23.60;99.10;;;;;;4976096;28;20031;-78
2021/05/27 13:11:45;;;;;;;13.40;12.00;;;23.60;99.90;;;;;;4975583;28;20023;-78
2021/05/27 13:14:18;;;;;;;18.40;11.63;;;23.70;99.90;;;;;;4975061;28;20015;-78